createdAt,value
2018-09-16T00:00:29.217Z,0.00
2018-09-16T00:01:29.172Z,0.00
2018-09-16T00:02:30.327Z,0.00
2018-09-16T00:03:49.800Z,0.00
2018-09-16T00:04:50.021Z,0.00
2018-09-16T00:05:50.022Z,0.00
2018-09-16T00:06:49.975Z,0.00
2018-09-16T00:07:50.039Z,0.00
2018-09-16T00:08:50.386Z,0.00
2018-09-16T00:09:50.664Z,0.00
2018-09-16T00:11:11.638Z,0.00
2018-09-16T00:12:12.011Z,0.00
2018-09-16T00:13:12.261Z,0.00
2018-09-16T00:14:12.489Z,0.00
2018-09-16T00:15:11.603Z,0.00
2018-09-16T00:16:32.659Z,0.00
2018-09-16T00:17:32.912Z,0.00
2018-09-16T00:18:32.913Z,0.00
2018-09-16T00:19:33.057Z,0.00
2018-09-16T00:20:33.308Z,0.00
2018-09-16T00:21:33.525Z,0.00
2018-09-16T00:22:33.204Z,0.00
2018-09-16T00:23:33.334Z,0.00
2018-09-16T00:24:33.375Z,0.00
2018-09-16T00:25:33.665Z,0.00
2018-09-16T00:26:33.065Z,0.00
2018-09-16T00:27:33.192Z,0.00
2018-09-16T00:28:33.491Z,0.00
2018-09-16T00:29:54.517Z,0.00
2018-09-16T00:30:54.525Z,0.00
2018-09-16T00:32:17.906Z,0.00
2018-09-16T00:33:18.412Z,0.00
2018-09-16T00:34:18.742Z,0.00
2018-09-16T00:35:17.807Z,0.00
2018-09-16T00:36:18.039Z,0.00
2018-09-16T00:37:18.120Z,0.00
2018-09-16T00:38:18.275Z,0.00
2018-09-16T00:39:18.435Z,0.00
2018-09-16T00:40:39.419Z,0.00
2018-09-16T00:41:39.616Z,0.00
2018-09-16T00:42:39.732Z,0.00
2018-09-16T00:43:39.731Z,0.00
2018-09-16T00:44:39.800Z,0.00
2018-09-16T00:45:45.477Z,0.00
2018-09-16T00:46:40.433Z,0.00
2018-09-16T00:48:00.753Z,0.00
2018-09-16T00:49:00.868Z,0.00
2018-09-16T00:50:01.195Z,0.00
2018-09-16T00:51:01.220Z,0.00
2018-09-16T00:52:01.376Z,0.00
2018-09-16T00:53:01.695Z,0.00
2018-09-16T00:54:00.938Z,0.00
2018-09-16T00:55:00.910Z,0.00
2018-09-16T00:56:01.145Z,0.00
2018-09-16T00:57:01.377Z,0.00
2018-09-16T00:58:00.726Z,0.00
2018-09-16T00:59:00.742Z,0.00
2018-09-16T01:00:00.926Z,0.00
2018-09-16T01:01:01.087Z,0.00
2018-09-16T01:02:01.571Z,0.00
2018-09-16T01:03:00.805Z,0.00
2018-09-16T01:04:00.845Z,0.00
2018-09-16T01:05:01.055Z,0.00
2018-09-16T01:06:01.080Z,0.00
2018-09-16T01:07:01.145Z,0.00
2018-09-16T01:08:01.520Z,0.00
2018-09-16T01:09:00.639Z,0.00
2018-09-16T01:10:01.661Z,0.00
2018-09-16T01:11:00.809Z,0.00
2018-09-16T01:12:00.845Z,0.00
2018-09-16T01:13:00.985Z,0.00
2018-09-16T01:14:01.055Z,0.00
2018-09-16T01:15:01.159Z,0.00
2018-09-16T01:16:01.317Z,0.00
2018-09-16T01:17:01.426Z,0.00
2018-09-16T01:18:21.430Z,0.00
2018-09-16T01:19:21.734Z,0.00
2018-09-16T01:20:21.921Z,0.00
2018-09-16T01:21:22.364Z,0.00
2018-09-16T01:22:21.477Z,0.00
2018-09-16T01:23:21.827Z,0.00
2018-09-16T01:24:43.062Z,0.00
2018-09-16T01:25:43.399Z,0.00
2018-09-16T01:26:43.509Z,0.00
2018-09-16T01:27:43.688Z,0.00
2018-09-16T01:29:04.900Z,0.00
2018-09-16T01:30:26.177Z,0.00
2018-09-16T01:31:26.370Z,0.00
2018-09-16T01:32:26.455Z,0.00
2018-09-16T01:33:26.515Z,0.00
2018-09-16T01:34:26.722Z,0.00
2018-09-16T01:35:26.977Z,0.00
2018-09-16T01:36:25.981Z,0.00
2018-09-16T01:37:26.372Z,0.00
2018-09-16T01:38:26.534Z,0.00
2018-09-16T01:39:26.526Z,0.00
2018-09-16T01:40:26.819Z,0.00
2018-09-16T01:41:27.818Z,0.00
2018-09-16T01:42:26.588Z,0.00
2018-09-16T01:43:26.853Z,0.00
2018-09-16T01:44:26.179Z,0.00
2018-09-16T01:45:26.496Z,0.00
2018-09-16T01:46:26.798Z,0.00
2018-09-16T01:47:26.775Z,0.00
2018-09-16T01:48:26.679Z,0.00
2018-09-16T01:49:26.848Z,0.00
2018-09-16T01:50:47.813Z,0.00
2018-09-16T01:51:47.956Z,0.00
2018-09-16T01:52:49.044Z,0.00
2018-09-16T01:53:48.419Z,0.00
2018-09-16T01:54:48.515Z,0.00
2018-09-16T01:55:48.770Z,0.00
2018-09-16T01:57:09.065Z,0.00
2018-09-16T01:58:09.320Z,0.00
2018-09-16T01:59:51.415Z,0.00
2018-09-16T02:00:51.505Z,0.00
2018-09-16T02:01:51.709Z,0.00
2018-09-16T02:02:52.005Z,0.00
2018-09-16T02:03:52.210Z,0.00
2018-09-16T02:04:51.514Z,0.00
2018-09-16T02:05:51.739Z,0.00
2018-09-16T02:06:52.664Z,0.00
2018-09-16T02:08:12.960Z,0.00
2018-09-16T02:09:12.859Z,0.00
2018-09-16T02:10:33.960Z,0.00
2018-09-16T02:11:34.296Z,0.00
2018-09-16T02:12:34.446Z,0.00
2018-09-16T02:13:34.893Z,0.00
2018-09-16T02:14:34.130Z,0.00
2018-09-16T02:15:34.108Z,0.00
2018-09-16T02:16:55.441Z,0.00
2018-09-16T02:18:16.756Z,0.00
2018-09-16T02:19:16.935Z,0.00
2018-09-16T02:20:38.264Z,0.00
2018-09-16T02:21:38.448Z,0.00
2018-09-16T02:22:38.684Z,0.00
2018-09-16T02:23:39.104Z,0.00
2018-09-16T02:24:38.264Z,0.00
2018-09-16T02:25:38.443Z,0.00
2018-09-16T02:26:38.861Z,0.00
2018-09-16T02:27:39.084Z,0.00
2018-09-16T02:28:38.326Z,0.00
2018-09-16T02:29:59.374Z,0.00
2018-09-16T02:30:59.592Z,0.00
2018-09-16T02:32:00.039Z,0.00
2018-09-16T02:33:00.020Z,0.00
2018-09-16T02:33:59.968Z,0.00
2018-09-16T02:35:00.767Z,0.00
2018-09-16T02:35:59.992Z,0.00
2018-09-16T02:37:00.146Z,0.00
2018-09-16T02:37:59.308Z,0.00
2018-09-16T02:38:59.479Z,0.00
2018-09-16T02:40:20.385Z,0.00
2018-09-16T02:41:21.442Z,0.00
2018-09-16T02:42:20.514Z,0.00
2018-09-16T02:44:02.652Z,0.00
2018-09-16T02:45:02.616Z,0.00
2018-09-16T02:46:02.847Z,0.00
2018-09-16T02:47:03.355Z,0.00
2018-09-16T02:48:03.499Z,0.00
2018-09-16T02:49:02.670Z,0.00
2018-09-16T02:50:02.862Z,0.00
2018-09-16T02:51:03.063Z,0.00
2018-09-16T02:52:24.209Z,0.00
2018-09-16T02:53:24.408Z,0.00
2018-09-16T02:54:24.733Z,0.00
2018-09-16T02:55:24.966Z,0.00
2018-09-16T02:56:25.393Z,0.00
2018-09-16T02:57:24.724Z,0.00
2018-09-16T02:58:45.977Z,0.00
2018-09-16T02:59:46.175Z,0.00
2018-09-16T03:01:07.469Z,0.00
2018-09-16T03:02:07.832Z,0.00
2018-09-16T03:03:29.145Z,0.00
2018-09-16T03:04:29.370Z,0.00
2018-09-16T03:05:29.539Z,0.00
2018-09-16T03:06:29.950Z,0.00
2018-09-16T03:07:29.079Z,0.00
2018-09-16T03:08:29.159Z,0.00
2018-09-16T03:09:50.438Z,0.00
2018-09-16T03:10:50.706Z,0.00
2018-09-16T03:11:50.865Z,0.00
2018-09-16T03:12:51.638Z,0.00
2018-09-16T03:13:51.140Z,0.00
2018-09-16T03:14:51.193Z,0.00
2018-09-16T03:15:51.026Z,0.00
2018-09-16T03:16:51.243Z,0.00
2018-09-16T03:17:51.386Z,0.00
2018-09-16T03:18:50.372Z,0.00
2018-09-16T03:19:50.713Z,0.00
2018-09-16T03:21:11.846Z,0.00
2018-09-16T03:22:12.013Z,0.00
2018-09-16T03:23:33.041Z,0.00
2018-09-16T03:24:33.274Z,0.00
2018-09-16T03:25:33.305Z,0.00
2018-09-16T03:27:16.814Z,0.00
2018-09-16T03:28:06.827Z,0.00
2018-09-16T03:29:06.899Z,0.00
2018-09-16T03:30:06.946Z,0.00
2018-09-16T03:31:07.210Z,0.00
2018-09-16T03:32:07.440Z,0.00
2018-09-16T03:33:06.565Z,0.00
2018-09-16T03:34:06.646Z,0.00
2018-09-16T03:35:06.985Z,0.00
2018-09-16T03:36:07.197Z,0.00
2018-09-16T03:37:07.277Z,0.00
2018-09-16T03:38:06.387Z,0.00
2018-09-16T03:39:06.588Z,0.00
2018-09-16T03:40:27.819Z,0.00
2018-09-16T03:41:28.024Z,0.00
2018-09-16T03:42:28.343Z,0.00
2018-09-16T03:43:28.545Z,0.00
2018-09-16T03:44:28.686Z,0.00
2018-09-16T03:45:28.187Z,0.00
2018-09-16T03:46:28.449Z,0.00
2018-09-16T03:47:28.670Z,0.00
2018-09-16T03:48:48.736Z,0.00
2018-09-16T03:49:49.015Z,0.00
2018-09-16T03:50:49.358Z,0.00
2018-09-16T03:52:30.489Z,0.00
2018-09-16T03:53:30.661Z,0.00
2018-09-16T03:54:30.916Z,0.00
2018-09-16T03:55:31.165Z,0.00
2018-09-16T03:56:30.629Z,0.00
2018-09-16T03:57:52.147Z,0.00
2018-09-16T03:59:13.532Z,0.00
2018-09-16T04:00:13.517Z,0.00
2018-09-16T04:01:13.735Z,0.00
2018-09-16T04:02:14.032Z,0.00
2018-09-16T04:03:14.503Z,0.00
2018-09-16T04:04:13.799Z,0.00
2018-09-16T04:05:13.892Z,0.00
2018-09-16T04:06:14.203Z,0.00
2018-09-16T04:07:15.734Z,0.00
2018-09-16T04:08:13.645Z,0.00
2018-09-16T04:09:13.943Z,0.00
2018-09-16T04:10:14.052Z,0.00
2018-09-16T04:11:35.002Z,0.00
2018-09-16T04:12:35.175Z,0.00
2018-09-16T04:13:35.206Z,0.00
2018-09-16T04:14:35.471Z,0.00
2018-09-16T04:15:35.819Z,0.00
2018-09-16T04:16:35.074Z,0.00
2018-09-16T04:17:56.177Z,0.00
2018-09-16T04:19:17.716Z,0.00
2018-09-16T04:20:17.938Z,0.00
2018-09-16T04:21:18.101Z,0.00
2018-09-16T04:22:39.409Z,1.00
2018-09-16T04:24:00.860Z,1.00
2018-09-16T04:25:21.853Z,0.00
2018-09-16T04:26:22.069Z,1.00
2018-09-16T04:27:43.763Z,1.00
2018-09-16T04:28:43.951Z,1.00
2018-09-16T04:29:44.063Z,2.00
2018-09-16T04:30:44.357Z,2.00
2018-09-16T04:31:44.304Z,2.00
2018-09-16T04:32:44.588Z,3.00
2018-09-16T04:33:43.607Z,3.00
2018-09-16T04:34:43.801Z,4.00
2018-09-16T04:35:44.137Z,4.00
2018-09-16T04:36:44.299Z,4.00
2018-09-16T04:37:44.535Z,6.00
2018-09-16T04:38:43.879Z,6.00
2018-09-16T04:40:04.669Z,8.00
2018-09-16T04:41:05.104Z,10.00
2018-09-16T04:42:05.187Z,12.00
2018-09-16T04:43:05.597Z,14.00
2018-09-16T04:44:05.097Z,17.00
2018-09-16T04:45:05.454Z,19.00
2018-09-16T04:46:05.704Z,24.00
2018-09-16T04:47:04.887Z,27.00
2018-09-16T04:48:05.121Z,33.00
2018-09-16T04:49:05.315Z,38.00
2018-09-16T04:50:05.432Z,43.00
2018-09-16T04:51:46.564Z,55.00
2018-09-16T04:52:46.726Z,63.00
2018-09-16T04:54:08.065Z,74.00
2018-09-16T04:55:08.349Z,86.00
2018-09-16T04:56:08.621Z,98.00
2018-09-16T04:57:08.755Z,111.00
2018-09-16T04:58:09.002Z,127.00
2018-09-16T04:59:08.127Z,143.00
2018-09-16T05:00:08.477Z,162.00
2018-09-16T05:01:08.855Z,183.00
2018-09-16T05:02:28.935Z,212.00
2018-09-16T05:03:28.984Z,237.00
2018-09-16T05:04:29.218Z,264.00
2018-09-16T05:05:29.359Z,295.00
2018-09-16T05:06:29.478Z,327.00
2018-09-16T05:07:29.738Z,362.00
2018-09-16T05:08:49.777Z,413.00
2018-09-16T05:09:50.058Z,450.00
2018-09-16T05:10:50.266Z,490.00
2018-09-16T05:11:50.493Z,532.00
2018-09-16T05:12:50.781Z,583.00
2018-09-16T05:13:50.099Z,637.00
2018-09-16T05:14:50.514Z,696.00
2018-09-16T05:15:50.687Z,753.00
2018-09-16T05:16:49.968Z,808.00
2018-09-16T05:17:50.247Z,856.00
2018-09-16T05:18:50.411Z,906.00
2018-09-16T05:19:50.702Z,963.00
2018-09-16T05:21:10.751Z,1050.00
2018-09-16T05:22:10.703Z,1125.00
2018-09-16T05:23:10.692Z,1203.00
2018-09-16T05:24:10.894Z,1290.00
2018-09-16T05:25:32.195Z,1404.00
2018-09-16T05:26:32.318Z,1485.00
2018-09-16T05:27:32.588Z,1555.00
2018-09-16T05:28:32.805Z,1620.00
2018-09-16T05:29:54.001Z,1707.00
2018-09-16T05:30:54.151Z,1775.00
2018-09-16T05:31:54.526Z,1863.00
2018-09-16T05:32:54.903Z,1965.00
2018-09-16T05:33:54.131Z,2090.00
2018-09-16T05:34:54.237Z,2219.00
2018-09-16T05:35:54.725Z,2381.00
2018-09-16T05:36:54.315Z,2508.00
2018-09-16T05:37:54.440Z,2639.00
2018-09-16T05:38:54.902Z,2744.00
2018-09-16T05:39:54.063Z,2861.00
2018-09-16T05:40:54.130Z,3010.00
2018-09-16T05:41:54.637Z,3129.00
2018-09-16T05:43:15.878Z,3322.00
2018-09-16T05:44:15.894Z,3449.00
2018-09-16T05:45:16.369Z,3585.00
2018-09-16T05:46:37.628Z,3791.00
2018-09-16T05:47:37.687Z,3917.00
2018-09-16T05:48:37.932Z,4028.00
2018-09-16T05:49:38.296Z,4149.00
2018-09-16T05:50:37.540Z,4220.00
2018-09-16T05:51:37.554Z,4260.00
2018-09-16T05:52:37.999Z,4269.00
2018-09-16T05:53:58.970Z,4241.00
2018-09-16T05:54:59.235Z,4274.00
2018-09-16T05:55:59.337Z,4290.00
2018-09-16T05:56:59.413Z,4365.00
2018-09-16T05:57:59.930Z,4456.00
2018-09-16T05:58:59.101Z,4534.00
2018-09-16T05:59:59.424Z,4625.00
2018-09-16T06:00:59.728Z,4746.00
2018-09-16T06:01:59.917Z,4845.00
2018-09-16T06:02:59.268Z,4875.00
2018-09-16T06:03:59.814Z,4843.00
2018-09-16T06:05:00.140Z,4821.00
2018-09-16T06:05:59.428Z,4785.00
2018-09-16T06:06:59.626Z,4804.00
2018-09-16T06:07:59.902Z,4893.00
2018-09-16T06:08:59.198Z,4912.00
2018-09-16T06:09:59.186Z,4750.00
2018-09-16T06:10:59.416Z,4667.00
2018-09-16T06:11:59.638Z,4621.00
2018-09-16T06:13:00.015Z,4624.00
2018-09-16T06:13:59.518Z,4645.00
2018-09-16T06:14:59.880Z,4685.00
2018-09-16T06:15:59.124Z,4704.00
2018-09-16T06:16:59.268Z,4737.00
2018-09-16T06:17:59.412Z,4779.00
2018-09-16T06:18:59.743Z,4866.00
2018-09-16T06:19:59.875Z,5038.00
2018-09-16T06:20:59.238Z,5206.00
2018-09-16T06:21:59.556Z,5780.00
2018-09-16T06:22:59.605Z,6067.00
2018-09-16T06:24:20.449Z,8138.00
2018-09-16T06:25:20.776Z,8132.00
2018-09-16T06:26:21.028Z,8149.00
2018-09-16T06:27:21.308Z,8549.00
2018-09-16T06:28:20.742Z,9276.00
2018-09-16T06:29:41.990Z,9616.00
2018-09-16T06:30:42.198Z,10000.00
2018-09-16T06:31:42.536Z,10108.00
2018-09-16T06:32:41.947Z,9591.00
2018-09-16T06:33:42.424Z,9469.00
2018-09-16T06:34:42.835Z,9715.00
2018-09-16T06:35:42.240Z,10321.00
2018-09-16T06:36:42.637Z,10409.00
2018-09-16T06:37:41.959Z,10584.00
2018-09-16T06:38:42.366Z,10936.00
2018-09-16T06:39:42.676Z,12112.00
2018-09-16T06:40:42.201Z,12630.00
2018-09-16T06:41:42.660Z,12928.00
2018-09-16T06:42:42.163Z,13453.00
2018-09-16T06:43:42.363Z,13319.00
2018-09-16T06:44:42.705Z,12956.00
2018-09-16T06:45:42.357Z,12993.00
2018-09-16T06:46:42.484Z,12853.00
2018-09-16T06:47:42.709Z,12804.00
2018-09-16T06:49:03.341Z,12811.00
2018-09-16T06:50:03.723Z,12728.00
2018-09-16T06:51:03.361Z,12416.00
2018-09-16T06:52:03.837Z,11910.00
2018-09-16T06:53:04.073Z,12369.00
2018-09-16T06:54:24.632Z,12605.00
2018-09-16T06:55:46.274Z,12492.00
2018-09-16T06:56:47.902Z,12246.00
2018-09-16T06:57:47.208Z,11144.00
2018-09-16T06:58:46.789Z,11339.00
2018-09-16T06:59:47.156Z,11122.00
2018-09-16T07:00:46.946Z,11938.00
2018-09-16T07:01:47.468Z,13540.00
2018-09-16T07:02:47.033Z,14472.00
2018-09-16T07:03:46.610Z,13648.00
2018-09-16T07:04:47.169Z,14360.00
2018-09-16T07:05:46.483Z,15509.00
2018-09-16T07:06:47.198Z,16034.00
2018-09-16T07:07:46.849Z,17000.00
2018-09-16T07:08:47.202Z,17568.00
2018-09-16T07:09:46.473Z,18160.00
2018-09-16T07:10:46.784Z,16984.00
2018-09-16T07:11:47.334Z,18560.00
2018-09-16T07:12:46.803Z,18032.00
2018-09-16T07:13:47.315Z,17560.00
2018-09-16T07:14:47.917Z,16203.00
2018-09-16T07:15:47.450Z,16229.00
2018-09-16T07:16:47.133Z,17712.00
2018-09-16T07:17:46.949Z,18440.00
2018-09-16T07:19:08.086Z,18216.00
2018-09-16T07:20:09.154Z,19256.00
2018-09-16T07:21:10.159Z,19288.00
2018-09-16T07:22:08.664Z,19448.00
2018-09-16T07:23:08.189Z,19544.00
2018-09-16T07:24:08.714Z,19616.00
2018-09-16T07:25:07.868Z,20080.00
2018-09-16T07:26:08.651Z,18360.00
2018-09-16T07:27:08.282Z,20616.00
2018-09-16T07:28:07.745Z,24896.00
2018-09-16T07:29:08.365Z,40816.00
2018-09-16T07:30:08.010Z,43152.00
2018-09-16T07:31:08.390Z,39072.00
2018-09-16T07:32:07.968Z,35992.00
2018-09-16T07:33:08.942Z,35992.00
2018-09-16T07:34:08.313Z,36496.00
2018-09-16T07:35:29.662Z,33384.00
2018-09-16T07:36:29.418Z,31752.00
2018-09-16T07:37:30.190Z,32464.00
2018-09-16T07:38:29.729Z,34304.00
2018-09-16T07:39:51.165Z,34096.00
2018-09-16T07:40:51.350Z,30928.00
2018-09-16T07:41:51.751Z,32344.00
2018-09-16T07:43:12.422Z,37336.00
2018-09-16T07:44:55.226Z,35680.00
2018-09-16T07:45:55.650Z,33904.00
2018-09-16T07:46:56.142Z,33448.00
2018-09-16T07:47:55.636Z,33944.00
2018-09-16T07:49:17.316Z,34624.00
2018-09-16T07:50:18.091Z,35440.00
2018-09-16T07:51:17.421Z,38064.00
2018-09-16T07:52:18.092Z,39784.00
2018-09-16T07:53:17.642Z,37464.00
2018-09-16T07:54:18.643Z,26848.00
2018-09-16T07:55:40.361Z,17640.00
2018-09-16T07:56:39.817Z,32264.00
2018-09-16T07:57:39.428Z,28192.00
2018-09-16T07:58:40.135Z,25600.00
2018-09-16T07:59:39.482Z,20152.00
2018-09-16T08:00:39.993Z,19656.00
2018-09-16T08:01:39.740Z,31640.00
2018-09-16T08:02:39.608Z,40416.00
2018-09-16T08:03:41.112Z,44080.00
2018-09-16T08:05:01.543Z,47176.00
2018-09-16T08:06:02.213Z,46168.00
2018-09-16T08:07:01.747Z,36512.00
2018-09-16T08:08:03.135Z,34032.00
2018-09-16T08:09:01.374Z,45064.00
2018-09-16T08:10:01.917Z,45888.00
2018-09-16T08:11:03.289Z,53976.00
2018-09-16T08:12:01.781Z,57296.00
2018-09-16T08:13:02.489Z,58512.00
2018-09-16T08:14:01.847Z,56632.00
2018-09-16T08:15:02.353Z,48152.00
2018-09-16T08:16:01.833Z,45312.00
2018-09-16T08:17:02.219Z,38240.00
2018-09-16T08:18:01.996Z,33984.00
2018-09-16T08:19:01.579Z,31840.00
2018-09-16T08:20:02.112Z,27296.00
2018-09-16T08:21:44.081Z,24776.00
2018-09-16T08:22:45.263Z,22904.00
2018-09-16T08:23:45.051Z,32536.00
2018-09-16T08:24:44.436Z,28504.00
2018-09-16T08:25:44.093Z,25176.00
2018-09-16T08:26:44.875Z,23360.00
2018-09-16T08:27:45.120Z,24144.00
2018-09-16T08:28:45.037Z,23072.00
2018-09-16T08:29:44.548Z,22472.00
2018-09-16T08:30:45.091Z,26344.00
2018-09-16T08:31:44.779Z,36224.00
2018-09-16T08:32:44.472Z,28696.00
2018-09-16T08:33:45.118Z,33064.00
2018-09-16T08:34:44.843Z,34480.00
2018-09-16T08:35:44.278Z,36032.00
2018-09-16T08:36:44.981Z,38064.00
2018-09-16T08:37:44.438Z,32032.00
2018-09-16T08:38:44.809Z,28704.00
2018-09-16T08:40:28.608Z,24496.00
2018-09-16T08:41:28.731Z,28088.00
2018-09-16T08:42:27.509Z,23400.00
2018-09-16T08:43:27.789Z,23824.00
2018-09-16T08:44:27.217Z,23864.00
2018-09-16T08:45:27.882Z,24320.00
2018-09-16T08:46:27.749Z,28048.00
2018-09-16T08:47:48.529Z,24728.00
2018-09-16T08:48:49.359Z,27568.00
2018-09-16T08:49:48.942Z,35160.00
2018-09-16T08:51:10.030Z,51272.00
2018-09-16T08:52:10.762Z,42240.00
2018-09-16T08:53:10.390Z,43984.00
2018-09-16T08:54:30.965Z,41920.00
2018-09-16T08:55:31.712Z,51376.00
2018-09-16T08:56:31.960Z,49120.00
2018-09-16T08:57:31.233Z,46736.00
2018-09-16T08:58:31.582Z,52240.00
2018-09-16T08:59:31.167Z,56176.00
2018-09-16T09:00:31.567Z,60568.00
2018-09-16T09:01:31.672Z,64800.00
2018-09-16T09:02:31.722Z,64000.00
2018-09-16T09:03:51.935Z,64528.00
2018-09-16T09:04:53.042Z,65535.00
2018-09-16T09:05:52.382Z,64504.00
2018-09-16T09:07:35.468Z,65535.00
2018-09-16T09:08:36.511Z,65535.00
2018-09-16T09:09:59.003Z,65535.00
2018-09-16T09:10:59.378Z,65535.00
2018-09-16T09:12:00.320Z,65535.00
2018-09-16T09:12:59.895Z,65535.00
2018-09-16T09:13:59.416Z,65535.00
2018-09-16T09:15:00.123Z,65535.00
2018-09-16T09:15:59.494Z,58120.00
2018-09-16T09:16:59.673Z,46512.00
2018-09-16T09:17:59.092Z,41064.00
2018-09-16T09:18:59.344Z,48520.00
2018-09-16T09:19:59.687Z,53648.00
2018-09-16T09:20:59.141Z,61800.00
2018-09-16T09:21:59.557Z,59216.00
2018-09-16T09:23:20.560Z,53960.00
2018-09-16T09:24:20.906Z,64544.00
2018-09-16T09:25:21.005Z,65535.00
2018-09-16T09:26:20.310Z,65535.00
2018-09-16T09:27:20.539Z,65535.00
2018-09-16T09:28:19.984Z,65535.00
2018-09-16T09:29:20.739Z,65535.00
2018-09-16T09:30:20.313Z,65535.00
2018-09-16T09:31:41.802Z,65535.00
2018-09-16T09:32:42.019Z,65535.00
2018-09-16T09:33:42.146Z,65535.00
2018-09-16T09:34:42.799Z,65535.00
2018-09-16T09:36:04.192Z,65535.00
2018-09-16T09:37:04.413Z,61536.00
2018-09-16T09:38:04.872Z,54848.00
2018-09-16T09:39:03.966Z,65535.00
2018-09-16T09:40:28.624Z,65535.00
2018-09-16T09:41:28.673Z,65535.00
2018-09-16T09:42:28.007Z,59320.00
2018-09-16T09:43:27.361Z,63400.00
2018-09-16T09:44:27.952Z,59336.00
2018-09-16T09:45:27.351Z,65535.00
2018-09-16T09:46:27.543Z,65535.00
2018-09-16T09:47:27.877Z,48256.00
2018-09-16T09:48:29.285Z,65535.00
2018-09-16T09:49:48.859Z,65535.00
2018-09-16T09:51:32.988Z,65535.00
2018-09-16T09:52:32.470Z,65535.00
2018-09-16T09:53:33.451Z,65535.00
2018-09-16T09:54:32.800Z,65535.00
2018-09-16T09:55:33.243Z,65535.00
2018-09-16T09:56:32.326Z,39840.00
2018-09-16T09:57:32.815Z,65535.00
2018-09-16T09:58:33.094Z,31888.00
2018-09-16T09:59:32.497Z,31192.00
2018-09-16T10:00:32.675Z,32216.00
2018-09-16T10:01:33.064Z,28232.00
2018-09-16T10:02:32.260Z,28568.00
2018-09-16T10:03:33.837Z,26152.00
2018-09-16T10:04:33.175Z,25720.00
2018-09-16T10:05:54.098Z,25728.00
2018-09-16T10:06:54.557Z,31016.00
2018-09-16T10:07:55.687Z,23000.00
2018-09-16T10:08:54.172Z,44552.00
2018-09-16T10:09:54.623Z,51672.00
2018-09-16T10:11:39.512Z,65535.00
2018-09-16T10:12:39.810Z,26680.00
2018-09-16T10:13:40.099Z,28792.00
2018-09-16T10:15:00.393Z,48856.00
2018-09-16T10:16:00.689Z,65535.00
2018-09-16T10:17:01.184Z,59408.00
2018-09-16T10:18:00.589Z,65535.00
2018-09-16T10:19:01.524Z,30376.00
2018-09-16T10:20:00.995Z,28936.00
2018-09-16T10:21:00.574Z,28048.00
2018-09-16T10:22:00.848Z,26432.00
2018-09-16T10:23:01.482Z,30064.00
2018-09-16T10:24:01.114Z,31832.00
2018-09-16T10:25:00.613Z,37056.00
2018-09-16T10:26:00.668Z,45024.00
2018-09-16T10:27:00.892Z,48288.00
2018-09-16T10:28:01.279Z,59760.00
2018-09-16T10:29:00.698Z,65535.00
2018-09-16T10:30:01.155Z,61368.00
2018-09-16T10:31:01.680Z,59704.00
2018-09-16T10:32:01.619Z,60872.00
2018-09-16T10:33:01.552Z,64720.00
2018-09-16T10:34:02.093Z,65448.00
2018-09-16T10:35:00.391Z,65535.00
2018-09-16T10:36:00.843Z,65535.00
2018-09-16T10:37:01.294Z,65535.00
2018-09-16T10:38:00.692Z,65535.00
2018-09-16T10:39:02.314Z,57696.00
2018-09-16T10:40:00.764Z,42736.00
2018-09-16T10:41:44.367Z,37592.00
2018-09-16T10:42:44.755Z,37328.00
2018-09-16T10:43:45.585Z,40640.00
2018-09-16T10:44:45.405Z,45224.00
2018-09-16T10:45:44.673Z,65535.00
2018-09-16T10:46:46.079Z,65535.00
2018-09-16T10:47:44.547Z,65535.00
2018-09-16T10:48:44.967Z,65535.00
2018-09-16T10:49:44.378Z,65535.00
2018-09-16T10:50:44.857Z,38744.00
2018-09-16T10:51:44.997Z,65535.00
2018-09-16T10:52:44.345Z,65312.00
2018-09-16T10:53:44.595Z,64848.00
2018-09-16T10:54:44.945Z,63816.00
2018-09-16T10:55:45.544Z,61600.00
2018-09-16T10:56:45.530Z,58496.00
2018-09-16T10:57:44.617Z,58624.00
2018-09-16T10:58:45.148Z,62720.00
2018-09-16T10:59:44.260Z,65535.00
2018-09-16T11:00:44.712Z,65535.00
2018-09-16T11:01:45.783Z,65535.00
2018-09-16T11:02:44.491Z,65535.00
2018-09-16T11:03:45.597Z,65535.00
2018-09-16T11:05:06.232Z,65535.00
2018-09-16T11:06:07.148Z,65535.00
2018-09-16T11:07:06.353Z,64296.00
2018-09-16T11:08:06.630Z,47640.00
2018-09-16T11:09:07.023Z,60384.00
2018-09-16T11:10:06.470Z,46040.00
2018-09-16T11:11:06.985Z,63136.00
2018-09-16T11:12:07.425Z,65535.00
2018-09-16T11:13:28.208Z,65535.00
2018-09-16T11:14:49.597Z,65535.00
2018-09-16T11:15:49.966Z,65535.00
2018-09-16T11:16:50.441Z,65535.00
2018-09-16T11:18:11.405Z,65535.00
2018-09-16T11:19:12.735Z,65456.00
2018-09-16T11:20:12.363Z,65535.00
2018-09-16T11:21:11.841Z,65535.00
2018-09-16T11:22:12.321Z,65535.00
2018-09-16T11:23:12.825Z,65535.00
2018-09-16T11:24:12.184Z,65535.00
2018-09-16T11:25:33.458Z,65535.00
2018-09-16T11:26:34.799Z,65535.00
2018-09-16T11:27:34.225Z,65535.00
2018-09-16T11:28:33.511Z,65535.00
2018-09-16T11:30:16.461Z,65535.00
2018-09-16T11:31:16.860Z,63008.00
2018-09-16T11:32:18.238Z,60688.00
2018-09-16T11:33:38.375Z,65535.00
2018-09-16T11:34:37.789Z,65535.00
2018-09-16T11:36:00.702Z,65535.00
2018-09-16T11:37:03.140Z,33736.00
2018-09-16T11:38:00.761Z,65535.00
2018-09-16T11:39:00.325Z,65535.00
2018-09-16T11:40:00.568Z,65535.00
2018-09-16T11:41:00.851Z,65535.00
2018-09-16T11:42:00.598Z,65535.00
2018-09-16T11:43:01.171Z,62968.00
2018-09-16T11:44:00.602Z,57928.00
2018-09-16T11:45:01.042Z,57008.00
2018-09-16T11:46:21.695Z,55400.00
2018-09-16T11:47:45.379Z,54392.00
2018-09-16T11:48:43.820Z,51480.00
2018-09-16T11:49:43.347Z,54272.00
2018-09-16T11:50:43.759Z,48320.00
2018-09-16T11:51:44.385Z,46208.00
2018-09-16T11:52:44.030Z,43744.00
2018-09-16T11:53:43.196Z,36888.00
2018-09-16T11:54:43.811Z,39120.00
2018-09-16T11:55:43.767Z,43552.00
2018-09-16T11:56:44.303Z,49200.00
2018-09-16T11:57:44.004Z,54480.00
2018-09-16T11:58:43.454Z,60120.00
2018-09-16T11:59:43.864Z,57032.00
2018-09-16T12:01:04.752Z,57904.00
2018-09-16T12:02:05.231Z,64152.00
2018-09-16T12:03:05.316Z,63656.00
2018-09-16T12:04:05.649Z,62464.00
2018-09-16T12:05:05.068Z,57080.00
2018-09-16T12:06:05.354Z,65535.00
2018-09-16T12:07:05.066Z,65535.00
2018-09-16T12:08:05.401Z,62392.00
2018-09-16T12:09:04.687Z,60136.00
2018-09-16T12:10:05.138Z,64040.00
2018-09-16T12:11:06.672Z,65376.00
2018-09-16T12:12:06.326Z,63896.00
2018-09-16T12:13:05.777Z,56936.00
2018-09-16T12:14:05.347Z,62120.00
2018-09-16T12:15:25.749Z,65535.00
2018-09-16T12:16:28.003Z,65535.00
2018-09-16T12:17:26.591Z,65535.00
2018-09-16T12:18:26.446Z,62584.00
2018-09-16T12:19:26.816Z,63944.00
2018-09-16T12:20:26.328Z,60520.00
2018-09-16T12:21:47.812Z,65528.00
2018-09-16T12:22:48.366Z,64752.00
2018-09-16T12:23:47.669Z,65535.00
2018-09-16T12:24:47.923Z,65535.00
2018-09-16T12:25:48.356Z,65535.00
2018-09-16T12:27:08.960Z,65535.00
2018-09-16T12:28:30.922Z,65535.00
2018-09-16T12:29:31.508Z,64640.00
2018-09-16T12:30:30.997Z,65535.00
2018-09-16T12:31:31.390Z,65535.00
2018-09-16T12:32:31.627Z,65535.00
2018-09-16T12:33:31.286Z,65535.00
2018-09-16T12:34:31.785Z,65535.00
2018-09-16T12:35:31.411Z,65535.00
2018-09-16T12:36:30.704Z,65535.00
2018-09-16T12:38:34.774Z,65535.00
2018-09-16T12:39:35.106Z,65535.00
2018-09-16T12:40:35.458Z,59704.00
2018-09-16T12:41:35.438Z,56032.00
2018-09-16T12:42:35.120Z,44608.00
2018-09-16T12:43:36.337Z,44952.00
2018-09-16T12:44:35.810Z,39872.00
2018-09-16T12:45:35.253Z,48152.00
2018-09-16T12:46:57.276Z,44424.00
2018-09-16T12:48:20.138Z,55520.00
2018-09-16T12:49:19.906Z,57400.00
2018-09-16T12:50:19.406Z,59632.00
2018-09-16T12:51:19.759Z,60336.00
2018-09-16T12:52:19.091Z,57696.00
2018-09-16T12:53:40.786Z,58040.00
2018-09-16T12:54:41.445Z,43168.00
2018-09-16T12:55:42.404Z,50984.00
2018-09-16T12:56:42.311Z,53144.00
2018-09-16T12:57:42.453Z,53488.00
2018-09-16T12:58:41.659Z,56592.00
2018-09-16T12:59:41.013Z,57744.00
2018-09-16T13:00:41.595Z,57048.00
2018-09-16T13:01:41.998Z,54744.00
2018-09-16T13:02:41.427Z,56248.00